Time;durP1;ratioP1;P1;durP2;ratioP2;P2;SDS_P1;SDS_P2;PMS_P1;PMS_P2;Temp;Humidity;BMP_temperature;BMP_pressure;BME280_temperature;BME280_humidity;BME280_pressure;Samples;Min_cycle;Max_cycle;Signal;HPM_P1;HPM_P2
2023/01/26 00:01:21;;;;;;;163.63;52.20;;;1.30;99.90;;;;;;6268584;22;37392;-74
2023/01/26 00:03:48;;;;;;;163.77;49.00;;;1.20;99.90;;;;;;6263123;22;37151;-74
2023/01/26 00:06:17;;;;;;;171.90;50.67;;;1.30;99.90;;;;;;6251807;22;36730;-75
2023/01/26 00:08:45;;;;;;;169.97;51.83;;;1.30;99.90;;;;;;6293945;22;38597;-74
2023/01/26 00:11:14;;;;;;;158.23;49.97;;;1.30;99.90;;;;;;6269628;22;38695;-72
2023/01/26 00:13:41;;;;;;;153.60;48.33;;;1.30;99.90;;;;;;6268631;22;36882;-73
2023/01/26 00:16:13;;;;;;;152.47;48.70;;;1.30;99.90;;;;;;6270760;22;36233;-74
2023/01/26 00:18:41;;;;;;;143.27;47.25;;;1.30;99.90;;;;;;6268894;22;37794;-74
2023/01/26 00:21:10;;;;;;;138.17;47.77;;;1.30;99.90;;;;;;6269096;22;38311;-75
2023/01/26 00:23:36;;;;;;;136.90;47.77;;;1.30;99.90;;;;;;6273443;22;38183;-75
2023/01/26 00:26:05;;;;;;;160.60;48.90;;;1.30;99.90;;;;;;6270496;22;36235;-75
2023/01/26 00:28:31;;;;;;;142.80;47.63;;;1.40;99.90;;;;;;6270649;22;40410;-75
2023/01/26 00:31:05;;;;;;;163.93;50.93;;;1.40;99.90;;;;;;6271904;22;38000;-75
2023/01/26 00:33:32;;;;;;;146.90;45.33;;;1.40;99.90;;;;;;6268609;22;47009;-73
2023/01/26 00:35:58;;;;;;;155.87;47.27;;;1.40;99.90;;;;;;6269418;22;36828;-74
2023/01/26 00:38:24;;;;;;;143.27;43.53;;;1.40;99.90;;;;;;6271881;22;39370;-75
2023/01/26 00:40:50;;;;;;;125.13;44.27;;;1.50;99.90;;;;;;6270238;22;37630;-73
2023/01/26 00:43:16;;;;;;;126.43;44.93;;;1.40;99.90;;;;;;6269760;22;37262;-73
2023/01/26 00:45:43;;;;;;;118.47;43.70;;;1.50;99.90;;;;;;6274008;22;37357;-74
2023/01/26 00:48:09;;;;;;;137.17;46.13;;;1.50;99.90;;;;;;6270511;22;38370;-74
2023/01/26 00:50:35;;;;;;;130.63;45.33;;;1.50;99.90;;;;;;6275964;22;39466;-74
2023/01/26 00:53:01;;;;;;;125.70;43.60;;;1.50;99.90;;;;;;6271233;22;38115;-75
2023/01/26 00:55:31;;;;;;;113.97;41.37;;;1.50;99.90;;;;;;6272732;22;47502;-74
2023/01/26 00:57:58;;;;;;;120.07;42.60;;;1.50;99.90;;;;;;6277417;22;38816;-75
2023/01/26 01:00:25;;;;;;;125.03;43.03;;;1.50;99.90;;;;;;6271089;22;38683;-73
2023/01/26 01:02:51;;;;;;;118.60;40.63;;;1.50;99.90;;;;;;6275945;22;38492;-75
2023/01/26 01:05:17;;;;;;;118.33;39.87;;;1.50;99.90;;;;;;6274119;22;37768;-74
2023/01/26 01:07:43;;;;;;;117.43;40.50;;;1.50;99.90;;;;;;6271912;22;37699;-74
2023/01/26 01:10:09;;;;;;;108.70;39.07;;;1.50;99.90;;;;;;6271948;22;38805;-73
2023/01/26 01:12:35;;;;;;;99.23;39.37;;;1.50;99.90;;;;;;6269533;22;36731;-74
2023/01/26 01:15:02;;;;;;;94.70;36.23;;;1.50;99.90;;;;;;6267465;22;37580;-75
2023/01/26 01:17:28;;;;;;;108.73;38.37;;;1.50;99.90;;;;;;6271948;22;38549;-74
2023/01/26 01:19:54;;;;;;;104.07;37.00;;;1.60;99.90;;;;;;6265983;22;38590;-75
2023/01/26 01:22:20;;;;;;;120.57;43.90;;;1.60;99.90;;;;;;6280678;22;38417;-74
2023/01/26 01:24:46;;;;;;;118.00;39.20;;;1.60;99.90;;;;;;6274227;22;37535;-74
2023/01/26 01:27:12;;;;;;;105.93;38.83;;;1.50;99.90;;;;;;6270106;22;38523;-74
2023/01/26 01:29:38;;;;;;;110.10;38.03;;;1.50;99.90;;;;;;6271014;22;37160;-74
2023/01/26 01:32:04;;;;;;;111.20;39.17;;;1.60;99.90;;;;;;6271537;22;38619;-74
2023/01/26 01:34:30;;;;;;;108.17;39.10;;;1.60;99.90;;;;;;6269009;22;36286;-74
2023/01/26 01:36:56;;;;;;;108.07;39.50;;;1.60;99.90;;;;;;6270172;22;38681;-74
2023/01/26 01:39:22;;;;;;;101.97;37.43;;;1.60;99.90;;;;;;6261582;22;37357;-74
2023/01/26 01:41:48;;;;;;;106.60;37.80;;;1.60;99.90;;;;;;6267892;22;39513;-73
2023/01/26 01:44:20;;;;;;;106.73;37.37;;;1.60;99.90;;;;;;6266752;22;38794;-74
2023/01/26 01:46:46;;;;;;;94.73;36.27;;;1.60;99.90;;;;;;6268459;22;39945;-74
2023/01/26 01:49:22;;;;;;;103.00;37.97;;;1.60;99.90;;;;;;6262284;22;38486;-74
2023/01/26 01:51:58;;;;;;;105.40;36.87;;;1.60;99.90;;;;;;6269788;22;40004;-74
2023/01/26 01:54:33;;;;;;;100.07;36.23;;;1.60;99.90;;;;;;6268813;22;38712;-74
2023/01/26 01:57:04;;;;;;;105.53;37.93;;;1.60;99.90;;;;;;6269482;22;38917;-74
2023/01/26 01:59:31;;;;;;;133.47;41.97;;;1.70;99.90;;;;;;6264246;22;48684;-74
2023/01/26 02:01:58;;;;;;;97.17;36.93;;;1.70;99.90;;;;;;6238492;22;37882;-78
2023/01/26 02:04:26;;;;;;;98.23;36.00;;;1.70;99.90;;;;;;6262054;22;37032;-77
2023/01/26 02:06:57;;;;;;;115.13;39.87;;;1.70;99.90;;;;;;6301387;22;39516;-77
2023/01/26 02:12:16;;;;;;;94.43;35.73;;;1.70;99.90;;;;;;6297845;22;38545;-78
2023/01/26 02:14:42;;;;;;;110.27;38.80;;;1.70;99.90;;;;;;6302442;22;38211;-77
2023/01/26 02:17:09;;;;;;;110.43;37.10;;;1.70;99.90;;;;;;6269583;22;37740;-77
2023/01/26 02:19:56;;;;;;;106.70;37.53;;;1.70;99.90;;;;;;6300120;22;39227;-78
2023/01/26 02:22:51;;;;;;;94.90;35.97;;;1.70;99.90;;;;;;6270944;22;37282;-77
2023/01/26 02:25:36;;;;;;;123.67;37.27;;;1.70;99.90;;;;;;6301120;22;37661;-77
2023/01/26 02:28:02;;;;;;;97.67;35.13;;;1.70;99.90;;;;;;6300092;22;39535;-78
2023/01/26 02:30:29;;;;;;;96.77;36.33;;;1.70;99.90;;;;;;6302009;22;39453;-78
2023/01/26 02:32:55;;;;;;;95.03;35.37;;;1.70;99.90;;;;;;6272681;22;38326;-78
2023/01/26 02:35:21;;;;;;;108.03;37.47;;;1.70;99.90;;;;;;6274436;22;36462;-78
2023/01/26 02:37:47;;;;;;;96.30;36.20;;;1.80;99.90;;;;;;6275042;22;37694;-78
2023/01/26 02:40:28;;;;;;;112.50;38.47;;;1.80;99.90;;;;;;6272489;22;37918;-78
2023/01/26 02:42:54;;;;;;;98.27;36.40;;;1.80;99.90;;;;;;6275700;22;37081;-78
2023/01/26 02:45:22;;;;;;;99.80;36.57;;;1.80;99.90;;;;;;6274112;22;36124;-77
2023/01/26 02:47:48;;;;;;;107.73;36.50;;;1.80;99.90;;;;;;6304313;22;39872;-77
2023/01/26 02:50:15;;;;;;;128.00;39.30;;;1.80;99.90;;;;;;6303709;22;39557;-77
2023/01/26 02:52:41;;;;;;;86.70;34.53;;;1.80;99.90;;;;;;6305921;22;37774;-77
2023/01/26 02:55:27;;;;;;;104.30;38.73;;;1.90;99.90;;;;;;6272946;22;36706;-77
2023/01/26 02:58:00;;;;;;;91.23;34.00;;;1.90;99.90;;;;;;6303887;22;38650;-77
2023/01/26 03:00:35;;;;;;;104.30;37.73;;;1.90;99.90;;;;;;6271630;22;46917;-77
2023/01/26 03:03:11;;;;;;;95.97;35.60;;;1.90;99.90;;;;;;6300544;22;39157;-77
2023/01/26 03:05:37;;;;;;;94.47;35.50;;;1.90;99.90;;;;;;6302101;22;48738;-77
2023/01/26 03:08:05;;;;;;;94.13;33.93;;;1.90;99.90;;;;;;6300585;22;38453;-77
2023/01/26 03:10:31;;;;;;;96.67;34.77;;;1.90;99.90;;;;;;6273390;22;39294;-77
2023/01/26 03:12:58;;;;;;;95.63;36.43;;;1.90;99.90;;;;;;6277783;22;37094;-77
2023/01/26 03:15:41;;;;;;;110.17;37.50;;;1.90;99.90;;;;;;6302594;22;37578;-77
2023/01/26 03:29:11;;;;;;;88.70;35.87;;;1.90;99.90;;;;;;6301531;22;39402;-77
2023/01/26 03:31:37;;;;;;;101.50;35.50;;;1.90;99.90;;;;;;6278294;22;38874;-77
2023/01/26 03:34:03;;;;;;;90.87;34.20;;;1.90;99.90;;;;;;6302424;22;38572;-77
2023/01/26 03:36:29;;;;;;;104.27;36.83;;;1.90;99.90;;;;;;6276825;22;36693;-77
2023/01/26 03:38:55;;;;;;;100.33;36.23;;;1.90;99.90;;;;;;6277053;22;39127;-77
2023/01/26 03:57:50;;;;;;;86.50;32.27;;;2.00;99.90;;;;;;6304226;22;49738;-77
2023/01/26 04:00:16;;;;;;;95.60;34.93;;;2.00;99.90;;;;;;6304158;22;39905;-77
2023/01/26 04:08:23;;;;;;;78.30;33.53;;;2.10;99.90;;;;;;6304595;22;39093;-77
2023/01/26 04:10:53;;;;;;;79.97;32.37;;;2.10;99.90;;;;;;6277789;22;38954;-77
2023/01/26 04:21:38;;;;;;;80.80;32.10;;;2.10;99.90;;;;;;6305117;22;49838;-77
2023/01/26 04:24:14;;;;;;;77.60;30.40;;;2.10;99.90;;;;;;6276523;22;38282;-77
2023/01/26 04:26:41;;;;;;;79.40;31.57;;;2.20;99.90;;;;;;6279264;22;37855;-77
2023/01/26 04:29:10;;;;;;;83.87;32.70;;;2.20;99.90;;;;;;6275911;22;36610;-77
2023/01/26 04:31:37;;;;;;;75.77;30.27;;;2.20;99.90;;;;;;6279113;22;37397;-77
2023/01/26 04:34:05;;;;;;;87.47;33.77;;;2.20;99.90;;;;;;6307509;22;38347;-77
2023/01/26 04:36:31;;;;;;;80.73;30.67;;;2.30;99.90;;;;;;6307034;22;38852;-77
2023/01/26 04:38:59;;;;;;;85.77;33.03;;;2.30;99.90;;;;;;6281213;22;20257;-77
2023/01/26 04:41:25;;;;;;;70.80;30.87;;;2.30;99.90;;;;;;6278878;22;38631;-77
2023/01/26 04:43:51;;;;;;;77.60;30.57;;;2.30;99.90;;;;;;6308310;22;38830;-77
2023/01/26 04:46:17;;;;;;;75.73;30.97;;;2.30;99.90;;;;;;6305892;22;37772;-77
2023/01/26 04:48:43;;;;;;;70.30;29.63;;;2.30;99.90;;;;;;6308622;22;37008;-77
2023/01/26 04:51:13;;;;;;;78.40;30.13;;;2.30;99.90;;;;;;6279521;22;37503;-77
2023/01/26 04:53:39;;;;;;;75.17;32.27;;;2.30;99.90;;;;;;6306583;22;38313;-77
2023/01/26 04:56:07;;;;;;;78.80;31.43;;;2.40;99.90;;;;;;6277261;22;37090;-77
2023/01/26 04:58:34;;;;;;;81.77;31.07;;;2.40;99.90;;;;;;6304791;22;37891;-77
2023/01/26 05:01:00;;;;;;;69.33;30.20;;;2.40;99.90;;;;;;6274477;22;37648;-77
2023/01/26 05:03:26;;;;;;;76.37;31.33;;;2.40;99.90;;;;;;6273603;22;37016;-77
2023/01/26 05:05:53;;;;;;;77.03;31.70;;;2.40;99.90;;;;;;6304963;22;38975;-77
2023/01/26 05:08:21;;;;;;;76.20;31.33;;;2.40;99.90;;;;;;6274530;22;36951;-77
2023/01/26 05:10:47;;;;;;;86.17;31.87;;;2.40;99.90;;;;;;6306450;22;38865;-77
2023/01/26 05:13:13;;;;;;;75.17;30.13;;;2.40;99.90;;;;;;6307453;22;39396;-78
2023/01/26 05:15:39;;;;;;;82.37;29.90;;;2.50;99.90;;;;;;6281083;22;38214;-78
2023/01/26 05:18:06;;;;;;;83.10;32.67;;;2.50;99.90;;;;;;6307148;22;37083;-77
2023/01/26 05:20:32;;;;;;;86.07;33.33;;;2.60;99.90;;;;;;6281450;22;37522;-78
2023/01/26 05:22:58;;;;;;;81.13;32.17;;;2.60;99.90;;;;;;6311662;22;38350;-78
2023/01/26 05:25:25;;;;;;;77.93;32.60;;;2.50;99.90;;;;;;6278761;22;36941;-77
2023/01/26 05:27:52;;;;;;;72.93;29.87;;;2.50;99.90;;;;;;6280442;22;35979;-77
2023/01/26 05:30:19;;;;;;;71.03;29.40;;;2.60;99.90;;;;;;6276831;22;37706;-77
2023/01/26 05:32:45;;;;;;;78.03;29.70;;;2.60;99.90;;;;;;6276366;22;37529;-77
2023/01/26 05:35:11;;;;;;;98.23;33.13;;;2.70;99.90;;;;;;6302619;22;38961;-77
2023/01/26 05:37:37;;;;;;;76.37;30.07;;;2.70;99.90;;;;;;6275042;22;36357;-77
2023/01/26 05:40:03;;;;;;;112.77;34.27;;;2.80;99.90;;;;;;6273321;22;39238;-77
2023/01/26 05:42:29;;;;;;;80.80;29.87;;;2.80;99.90;;;;;;6300446;22;40191;-77
2023/01/26 05:44:55;;;;;;;84.60;33.90;;;2.80;99.90;;;;;;6301345;22;37807;-77
2023/01/26 05:47:22;;;;;;;80.83;31.70;;;2.80;99.90;;;;;;6299669;22;38038;-77
2023/01/26 05:49:48;;;;;;;85.13;31.77;;;2.90;99.90;;;;;;6303042;22;39634;-77
2023/01/26 05:52:16;;;;;;;75.97;31.10;;;2.90;99.90;;;;;;6302287;22;38547;-77
2023/01/26 05:54:42;;;;;;;92.27;33.07;;;2.90;99.90;;;;;;6304924;22;38646;-77
2023/01/26 05:57:09;;;;;;;78.93;31.13;;;3.00;99.90;;;;;;6299868;22;37264;-77
2023/01/26 05:59:35;;;;;;;84.10;32.83;;;3.00;99.90;;;;;;6281329;22;39124;-76
2023/01/26 06:02:01;;;;;;;109.33;34.47;;;3.00;99.90;;;;;;6276929;22;38720;-77
2023/01/26 06:04:27;;;;;;;80.53;30.83;;;3.10;99.90;;;;;;6274639;22;38322;-77
2023/01/26 06:06:55;;;;;;;83.60;32.03;;;3.10;99.90;;;;;;6304545;22;37656;-77
2023/01/26 06:09:22;;;;;;;77.23;31.27;;;3.10;99.90;;;;;;6269940;22;38691;-77
2023/01/26 06:11:48;;;;;;;68.50;28.23;;;3.20;99.90;;;;;;6303491;22;38225;-76
2023/01/26 06:14:15;;;;;;;85.30;31.27;;;3.30;99.90;;;;;;6270948;22;37186;-77
2023/01/26 06:16:41;;;;;;;97.37;30.80;;;3.40;99.90;;;;;;6302843;22;38194;-76
2023/01/26 06:19:10;;;;;;;103.53;32.80;;;3.50;99.90;;;;;;6299845;22;38795;-77
2023/01/26 06:21:36;;;;;;;111.57;33.33;;;3.60;99.90;;;;;;6304073;22;38021;-78
2023/01/26 06:24:02;;;;;;;93.03;32.47;;;3.60;99.90;;;;;;6278163;22;38080;-77
2023/01/26 06:26:29;;;;;;;90.97;31.03;;;3.60;99.90;;;;;;6305897;22;37139;-77
2023/01/26 06:28:55;;;;;;;85.53;31.43;;;3.70;99.90;;;;;;6303020;22;38737;-77
2023/01/26 06:31:23;;;;;;;85.90;30.07;;;3.70;99.90;;;;;;6299824;22;38269;-78
2023/01/26 06:33:49;;;;;;;81.53;30.30;;;3.60;99.90;;;;;;6271274;22;38361;-77
2023/01/26 06:36:16;;;;;;;90.63;29.90;;;3.70;99.90;;;;;;6299858;22;37623;-77
2023/01/26 06:38:50;;;;;;;96.23;31.13;;;3.80;99.90;;;;;;6305037;22;40228;-77
2023/01/26 06:41:16;;;;;;;74.30;26.60;;;3.80;99.90;;;;;;6284091;22;37779;-81
2023/01/26 06:43:47;;;;;;;80.50;28.47;;;3.80;99.90;;;;;;6279094;22;38372;-77
2023/01/26 06:46:14;;;;;;;80.67;28.60;;;3.90;99.90;;;;;;6274535;22;36485;-77
2023/01/26 06:48:40;;;;;;;91.20;30.27;;;4.00;99.90;;;;;;6277180;22;37622;-77
2023/01/26 06:51:18;;;;;;;79.63;27.97;;;4.00;99.90;;;;;;6275941;22;37317;-77
2023/01/26 06:53:56;;;;;;;85.87;27.27;;;4.10;99.90;;;;;;6272556;22;37459;-77
2023/01/26 06:56:23;;;;;;;104.27;29.37;;;4.20;99.90;;;;;;6276335;22;36332;-77
2023/01/26 06:58:50;;;;;;;68.13;24.73;;;4.20;99.90;;;;;;6275986;22;37548;-78
2023/01/26 07:01:19;;;;;;;76.27;26.00;;;4.30;99.90;;;;;;6270276;22;38715;-77
2023/01/26 07:03:47;;;;;;;75.57;25.27;;;4.30;99.90;;;;;;6303300;22;39197;-78
2023/01/26 07:06:14;;;;;;;83.20;24.77;;;4.40;99.90;;;;;;6273078;22;38086;-77
2023/01/26 07:08:40;;;;;;;76.20;24.40;;;4.50;99.90;;;;;;6304432;22;39588;-77
2023/01/26 07:11:07;;;;;;;77.87;23.93;;;4.60;99.90;;;;;;6274524;22;37365;-77
2023/01/26 07:13:33;;;;;;;76.83;22.70;;;4.70;99.90;;;;;;6301917;22;37872;-78
2023/01/26 07:16:01;;;;;;;66.00;21.80;;;4.70;99.90;;;;;;6273604;22;36258;-78
2023/01/26 07:18:27;;;;;;;88.10;21.90;;;4.80;99.90;;;;;;6274386;22;47177;-77
2023/01/26 07:20:53;;;;;;;71.63;23.67;;;4.80;99.90;;;;;;6276443;22;37736;-77
2023/01/26 07:23:20;;;;;;;64.47;19.47;;;4.90;99.90;;;;;;6304020;22;38954;-77
2023/01/26 07:25:46;;;;;;;61.17;17.33;;;5.00;99.90;;;;;;6279055;22;37301;-77
2023/01/26 07:28:12;;;;;;;58.00;16.13;;;5.10;99.90;;;;;;6276354;22;38403;-77
2023/01/26 07:30:38;;;;;;;68.17;16.90;;;5.20;99.90;;;;;;6276653;22;37760;-77
2023/01/26 07:33:04;;;;;;;56.70;14.97;;;5.30;99.90;;;;;;6304392;22;37986;-78
2023/01/26 07:35:30;;;;;;;65.23;13.47;;;5.30;99.90;;;;;;6308707;22;37484;-78
2023/01/26 07:37:57;;;;;;;53.17;12.73;;;5.40;99.90;;;;;;6308342;22;38703;-78
2023/01/26 07:40:24;;;;;;;55.03;10.83;;;5.40;99.90;;;;;;6277723;22;37972;-78
2023/01/26 07:42:50;;;;;;;48.53;10.37;;;5.40;99.90;;;;;;6306865;22;39057;-78
2023/01/26 07:45:17;;;;;;;50.33;9.90;;;5.50;99.90;;;;;;6277756;22;36706;-77
2023/01/26 07:47:43;;;;;;;46.30;9.60;;;5.60;99.90;;;;;;6306593;22;37628;-78
2023/01/26 07:50:11;;;;;;;58.53;9.73;;;5.60;99.90;;;;;;6303222;22;38199;-78
2023/01/26 07:52:38;;;;;;;50.30;7.90;;;5.60;99.90;;;;;;6304882;22;38503;-78
2023/01/26 07:55:04;;;;;;;53.43;7.57;;;5.60;99.90;;;;;;6306337;22;37015;-78
2023/01/26 07:57:33;;;;;;;42.07;7.23;;;5.60;99.90;;;;;;6306945;22;48569;-77
2023/01/26 07:59:59;;;;;;;48.50;6.90;;;5.60;99.90;;;;;;6309267;22;38036;-77
2023/01/26 08:02:25;;;;;;;47.47;6.90;;;5.60;99.90;;;;;;6306459;22;39351;-76
2023/01/26 08:04:51;;;;;;;50.77;6.30;;;5.60;99.90;;;;;;6309751;22;38027;-77
2023/01/26 08:07:17;;;;;;;57.50;6.93;;;5.60;99.90;;;;;;6308466;22;38034;-79
2023/01/26 08:09:43;;;;;;;42.33;6.40;;;5.50;99.90;;;;;;6311451;22;39495;-76
2023/01/26 08:12:11;;;;;;;43.13;6.33;;;5.50;99.90;;;;;;6308039;22;39020;-81
2023/01/26 08:14:37;;;;;;;51.27;5.97;;;5.60;99.90;;;;;;6307014;22;36553;-77
2023/01/26 08:17:03;;;;;;;46.10;6.33;;;5.60;99.90;;;;;;6306026;22;38772;-77
2023/01/26 08:19:29;;;;;;;44.33;5.73;;;5.60;99.90;;;;;;6307776;22;37656;-77
2023/01/26 08:21:56;;;;;;;37.87;5.30;;;5.60;99.90;;;;;;6308738;22;39109;-77
2023/01/26 08:24:22;;;;;;;40.23;6.33;;;5.60;99.90;;;;;;6306478;22;37558;-77
2023/01/26 08:26:48;;;;;;;42.23;5.70;;;5.50;99.90;;;;;;6304054;22;38949;-77
2023/01/26 08:29:14;;;;;;;37.53;6.10;;;5.50;99.90;;;;;;6305860;22;39187;-77
2023/01/26 08:31:41;;;;;;;57.27;8.33;;;5.40;99.90;;;;;;6277865;22;37523;-77
2023/01/26 08:34:07;;;;;;;40.97;5.53;;;5.40;99.90;;;;;;6306989;22;38178;-77
2023/01/26 08:36:33;;;;;;;38.47;5.53;;;5.40;99.90;;;;;;6279244;22;38266;-77
2023/01/26 08:38:59;;;;;;;43.50;6.80;;;5.40;99.90;;;;;;6308558;22;39507;-77
2023/01/26 08:41:25;;;;;;;38.17;7.27;;;5.40;99.90;;;;;;6274879;22;37753;-77
2023/01/26 08:43:51;;;;;;;39.67;5.47;;;5.40;99.90;;;;;;6279891;22;37490;-77
2023/01/26 08:46:17;;;;;;;49.67;6.20;;;5.30;99.90;;;;;;6277406;22;38123;-77
2023/01/26 08:48:44;;;;;;;42.57;5.80;;;5.30;99.90;;;;;;6310238;22;37912;-77
2023/01/26 08:51:10;;;;;;;59.80;6.03;;;5.30;99.90;;;;;;6304338;22;37008;-77
2023/01/26 08:53:36;;;;;;;40.00;5.63;;;5.30;99.90;;;;;;6307790;22;36982;-77
2023/01/26 08:56:04;;;;;;;43.57;6.67;;;5.30;99.90;;;;;;6278489;22;37661;-77
2023/01/26 08:58:32;;;;;;;39.20;5.07;;;5.30;99.90;;;;;;6307433;22;38669;-77
2023/01/26 09:01:02;;;;;;;37.43;5.43;;;5.30;99.90;;;;;;6305449;22;37461;-77
2023/01/26 09:03:28;;;;;;;43.60;6.10;;;5.30;99.90;;;;;;6277230;22;47290;-78
2023/01/26 09:05:59;;;;;;;34.20;5.97;;;5.40;99.90;;;;;;6279350;22;38711;-78
2023/01/26 09:08:25;;;;;;;42.30;5.60;;;5.40;99.90;;;;;;6279268;22;37690;-78
2023/01/26 09:10:51;;;;;;;45.80;6.37;;;5.40;99.90;;;;;;6305806;22;37930;-77
2023/01/26 09:13:17;;;;;;;44.10;6.47;;;5.40;99.90;;;;;;6304698;22;37545;-78
2023/01/26 09:15:43;;;;;;;33.70;5.30;;;5.40;99.90;;;;;;6279423;22;38162;-77
2023/01/26 09:18:10;;;;;;;35.57;5.57;;;5.50;99.90;;;;;;6304991;22;38239;-77
2023/01/26 09:20:40;;;;;;;32.83;5.10;;;5.50;99.90;;;;;;6310348;22;39590;-80
2023/01/26 09:23:07;;;;;;;28.40;5.80;;;5.60;99.90;;;;;;6299304;22;36360;-81
2023/01/26 09:25:37;;;;;;;36.67;5.77;;;5.60;99.90;;;;;;6288738;22;39030;-81
2023/01/26 09:28:05;;;;;;;36.10;5.17;;;5.70;99.90;;;;;;6280913;22;37577;-81
2023/01/26 09:30:31;;;;;;;39.03;5.93;;;5.90;99.90;;;;;;6280231;22;40306;-80
2023/01/26 09:32:59;;;;;;;36.83;7.27;;;6.10;99.90;;;;;;6286721;22;37741;-80
2023/01/26 09:35:29;;;;;;;43.73;6.07;;;6.30;99.90;;;;;;6275085;22;37619;-80
2023/01/26 09:37:56;;;;;;;49.73;5.80;;;6.40;99.90;;;;;;6280190;22;36982;-80
2023/01/26 09:40:34;;;;;;;45.37;6.13;;;6.50;99.90;;;;;;6274218;22;39062;-80
2023/01/26 09:43:24;;;;;;;40.47;4.87;;;6.40;99.90;;;;;;6280701;22;36739;-80
2023/01/26 09:45:58;;;;;;;40.80;5.80;;;6.50;99.90;;;;;;6301332;22;47456;-79
2023/01/26 09:48:39;;;;;;;29.23;5.10;;;6.50;99.90;;;;;;6278295;22;39297;-79
2023/01/26 09:51:22;;;;;;;34.70;5.43;;;6.50;99.90;;;;;;6275899;22;39806;-80
2023/01/26 09:53:54;;;;;;;;;;;6.40;99.90;;;;;;6305150;22;36417;-80
2023/01/26 09:56:27;;;;;;;28.03;4.23;;;6.30;99.90;;;;;;6273397;22;37741;-80
2023/01/26 09:59:28;;;;;;;34.83;5.73;;;6.30;99.90;;;;;;6275117;22;39101;-79
2023/01/26 10:02:19;;;;;;;39.07;5.20;;;6.20;99.90;;;;;;6275661;22;47560;-79
2023/01/26 10:04:49;;;;;;;34.43;5.00;;;6.20;99.90;;;;;;6281053;22;48888;-80
2023/01/26 10:07:16;;;;;;;28.97;5.03;;;6.10;99.90;;;;;;6277932;22;38066;-79
2023/01/26 10:09:47;;;;;;;39.07;6.33;;;6.10;99.90;;;;;;6277259;22;39030;-79
2023/01/26 10:12:24;;;;;;;42.07;6.87;;;6.20;99.90;;;;;;6278584;22;36855;-80
2023/01/26 10:15:18;;;;;;;37.07;5.30;;;6.20;99.90;;;;;;6279662;22;36511;-80
2023/01/26 10:17:46;;;;;;;36.27;4.90;;;6.20;99.90;;;;;;6220823;22;48484;-79
2023/01/26 10:20:21;;;;;;;33.37;6.77;;;6.20;99.90;;;;;;6274576;22;37523;-80
2023/01/26 10:23:17;;;;;;;39.67;6.67;;;6.30;99.90;;;;;;6282490;22;38136;-79
2023/01/26 10:25:47;;;;;;;42.57;6.13;;;6.40;99.90;;;;;;6254967;22;49150;-80
2023/01/26 10:28:17;;;;;;;39.43;5.40;;;6.50;99.90;;;;;;6275387;22;37915;-79
2023/01/26 10:30:46;;;;;;;31.17;4.83;;;6.60;99.90;;;;;;6278850;22;38199;-79
2023/01/26 10:33:25;;;;;;;35.07;6.23;;;6.60;99.90;;;;;;6277554;22;39218;-80
2023/01/26 10:35:53;;;;;;;42.07;5.53;;;6.70;99.90;;;;;;6280207;22;38514;-81
2023/01/26 10:38:32;;;;;;;33.10;5.30;;;6.80;99.90;;;;;;6280711;22;38201;-80
2023/01/26 10:41:03;;;;;;;37.03;5.20;;;6.90;99.90;;;;;;6269041;22;37704;-80
2023/01/26 10:43:35;;;;;;;30.20;4.93;;;6.90;99.90;;;;;;6271804;22;47040;-80
2023/01/26 10:46:03;;;;;;;43.67;5.25;;;7.00;99.90;;;;;;6279884;22;36862;-80
2023/01/26 10:48:33;;;;;;;39.10;5.13;;;7.10;99.90;;;;;;6281666;22;39010;-81
2023/01/26 10:51:15;;;;;;;31.73;4.80;;;7.10;99.90;;;;;;6284638;22;39296;-81
2023/01/26 10:53:41;;;;;;;31.98;4.20;;;7.20;99.90;;;;;;6271902;22;48537;-80
2023/01/26 10:56:17;;;;;;;31.43;4.77;;;7.20;99.90;;;;;;6281111;22;36199;-82
2023/01/26 10:58:53;;;;;;;37.80;4.77;;;7.20;99.90;;;;;;6287464;22;40754;-80
2023/01/26 11:01:21;;;;;;;41.00;5.63;;;7.20;99.90;;;;;;6283593;22;38282;-80
2023/01/26 11:04:07;;;;;;;32.60;3.97;;;7.30;99.90;;;;;;6312412;22;38819;-80
2023/01/26 11:06:34;;;;;;;28.27;4.73;;;7.30;99.90;;;;;;6300222;22;48485;-82
2023/01/26 11:09:13;;;;;;;26.70;4.03;;;7.30;99.90;;;;;;6281547;22;39849;-81
2023/01/26 11:11:40;;;;;;;24.83;3.90;;;7.40;99.90;;;;;;6282634;22;48894;-82
2023/01/26 11:14:18;;;;;;;20.47;3.40;;;7.50;99.90;;;;;;6276144;22;37456;-80
2023/01/26 11:17:04;;;;;;;26.60;3.87;;;7.50;99.90;;;;;;6280988;22;36304;-79
2023/01/26 11:19:30;;;;;;;19.40;3.70;;;7.60;99.90;;;;;;6280190;22;48764;-79
2023/01/26 11:22:06;;;;;;;31.50;3.80;;;7.70;99.90;;;;;;6280400;22;37156;-80
2023/01/26 11:24:41;;;;;;;27.20;3.30;;;7.70;99.90;;;;;;6276405;22;47153;-79
2023/01/26 11:27:47;;;;;;;20.93;2.97;;;7.90;99.90;;;;;;6281201;22;36405;-79
2023/01/26 11:30:34;;;;;;;24.93;3.60;;;8.00;99.90;;;;;;6238580;22;39031;-80
2023/01/26 11:33:12;;;;;;;19.37;3.10;;;8.00;99.90;;;;;;6283769;22;40281;-79
2023/01/26 11:36:02;;;;;;;19.27;3.57;;;8.10;99.90;;;;;;6270948;22;49545;-79
2023/01/26 11:38:40;;;;;;;25.60;4.07;;;8.00;99.90;;;;;;6283520;22;49323;-80
2023/01/26 11:41:15;;;;;;;19.00;2.60;;;8.00;99.90;;;;;;6283377;22;39204;-81
2023/01/26 11:44:26;;;;;;;22.03;3.50;;;8.10;99.90;;;;;;6284324;22;37732;-80
2023/01/26 11:46:55;;;;;;;19.87;3.57;;;8.10;99.90;;;;;;6239146;22;47749;-79
2023/01/26 11:49:38;;;;;;;13.67;2.17;;;8.20;99.90;;;;;;6275941;22;37293;-80
2023/01/26 11:52:04;;;;;;;;;;;8.20;99.90;;;;;;6276300;22;39776;-80
2023/01/26 11:54:49;;;;;;;19.50;3.17;;;8.30;99.90;;;;;;6276892;22;37427;-79
2023/01/26 11:57:31;;;;;;;18.97;3.73;;;8.30;99.90;;;;;;6301952;22;38327;-80
2023/01/26 12:00:04;;;;;;;20.85;2.90;;;8.30;99.90;;;;;;6274086;22;36571;-80
2023/01/26 12:02:37;;;;;;;20.57;3.27;;;8.20;99.90;;;;;;6277282;22;37621;-80
2023/01/26 12:05:14;;;;;;;16.60;3.13;;;8.30;99.90;;;;;;6277062;22;38584;-81
2023/01/26 12:07:54;;;;;;;19.70;3.80;;;8.30;99.90;;;;;;6276927;22;47346;-79
2023/01/26 12:10:27;;;;;;;20.93;3.07;;;8.40;99.90;;;;;;6273174;22;37698;-81
2023/01/26 12:13:03;;;;;;;19.27;3.07;;;8.50;99.90;;;;;;6282248;22;37602;-79
2023/01/26 12:15:37;;;;;;;18.37;3.40;;;8.80;99.90;;;;;;6266339;22;47363;-80
2023/01/26 12:18:26;;;;;;;17.23;2.33;;;8.90;99.90;;;;;;6278562;22;38379;-79
2023/01/26 12:21:22;;;;;;;10.53;2.30;;;8.90;99.90;;;;;;6282636;22;37792;-80
2023/01/26 12:23:58;;;;;;;11.93;1.93;;;8.80;99.90;;;;;;6257118;22;48465;-80
2023/01/26 12:26:31;;;;;;;10.27;2.20;;;8.70;99.90;;;;;;6279381;22;39811;-81
2023/01/26 12:29:08;;;;;;;16.37;2.03;;;8.70;99.90;;;;;;6279460;22;39219;-80
2023/01/26 12:31:57;;;;;;;13.70;2.17;;;8.50;99.90;;;;;;6281239;22;47847;-80
2023/01/26 12:34:27;;;;;;;11.00;2.33;;;8.50;99.90;;;;;;6256924;22;39550;-81
2023/01/26 12:37:23;;;;;;;15.17;2.43;;;8.60;99.90;;;;;;6284882;22;38605;-80
2023/01/26 12:40:11;;;;;;;14.67;2.73;;;8.90;99.90;;;;;;6284262;22;47006;-79
2023/01/26 12:43:08;;;;;;;14.47;2.70;;;8.80;99.90;;;;;;6308892;22;47271;-80
2023/01/26 12:45:39;;;;;;;15.63;2.73;;;8.70;99.90;;;;;;6307386;22;48139;-80
2023/01/26 12:48:14;;;;;;;17.33;2.23;;;8.80;99.90;;;;;;6277379;22;37427;-81
2023/01/26 12:50:56;;;;;;;16.70;3.00;;;9.00;99.90;;;;;;6264014;22;38472;-79
2023/01/26 12:53:22;;;;;;;;;;;9.10;99.90;;;;;;6288229;22;37636;-79
2023/01/26 12:55:53;;;;;;;19.63;2.67;;;9.20;99.90;;;;;;6281218;22;39578;-79
2023/01/26 12:58:36;;;;;;;16.33;2.67;;;9.20;99.90;;;;;;6278222;22;38245;-79
2023/01/26 13:01:11;;;;;;;16.30;2.60;;;9.20;99.90;;;;;;6283371;22;37389;-80
2023/01/26 13:03:44;;;;;;;16.93;2.87;;;9.10;99.90;;;;;;6291547;22;37493;-79
2023/01/26 13:06:09;;;;;;;;;;;8.80;99.90;;;;;;6291309;22;38098;-81
2023/01/26 13:08:35;;;;;;;24.40;3.50;;;8.70;99.90;;;;;;6291913;22;37114;-79
2023/01/26 13:11:07;;;;;;;17.33;3.97;;;8.70;99.90;;;;;;6293118;22;38182;-80
2023/01/26 13:13:51;;;;;;;15.37;3.00;;;9.00;99.90;;;;;;6290606;22;36324;-80
2023/01/26 13:16:17;;;;;;;18.20;3.27;;;9.30;99.90;;;;;;6289477;22;38824;-80
2023/01/26 13:18:54;;;;;;;21.47;4.97;;;9.30;99.90;;;;;;6293972;22;36990;-80
2023/01/26 13:21:46;;;;;;;17.87;3.40;;;9.30;99.90;;;;;;6296505;22;38045;-80
2023/01/26 13:24:33;;;;;;;23.87;3.37;;;9.20;99.90;;;;;;6290842;22;35936;-81
2023/01/26 13:26:59;;;;;;;25.07;4.37;;;9.10;99.90;;;;;;6294269;22;38568;-81
2023/01/26 13:29:31;;;;;;;20.07;3.43;;;9.00;99.90;;;;;;6302521;22;37649;-81
2023/01/26 13:31:59;;;;;;;27.85;3.50;;;8.90;99.90;;;;;;6304561;22;37049;-81
2023/01/26 13:34:57;;;;;;;21.80;3.20;;;8.80;99.90;;;;;;6306000;22;37425;-82
2023/01/26 13:37:35;;;;;;;21.17;3.03;;;8.80;99.90;;;;;;6277255;22;38551;-81
2023/01/26 13:52:27;;;;;;;16.63;3.00;;;8.70;99.90;;;;;;6299846;22;20021;-81
2023/01/26 13:54:59;;;;;;;15.37;2.90;;;8.70;99.90;;;;;;6297274;22;38673;-80